メインページ
METAR-TAF:

METAR-TAF

空港 :

北京, 中華人民共和国

北京首都国際空港

緯度: 39-56N, 経度: 116-17E, 海抜: 55m

現時点の気象観測

当レポートは15分前の01:00(UTC)に作成
北/北東の風 4kt、北/北西からの間で変化する
気温 21°C
湿度 46%
気圧 1016 hPa
視程10km以上
1,500メートル以下は雲なし、積乱雲なし

METAR: ZBAA 230100Z 03002MPS 330V080 CAVOK 21/09 Q1016 NOSIG

時間: 09:15 (01:15 UTC)

予報

当レポートは3時間55分前の21:20(UTC)に作成
予報は23日の 00時(UTC)から 23日の 24時(UTC)まで有効
の風 8kt
視程10km以上
1,500メートル以下は雲なし、積乱雲なし

TAF: ZBAA 222120Z 2300/2324 35004MPS CAVOK TX28/2307Z TN13/2321Z

4,000以上の空港の気象観測と天気予報(METAR報とTAF報)

利用可能な観測所は地図上に黄色い丸と赤い丸で示す。

丸の上にカーソルを重ねると観測所名を参照できる。

次にクリックすると気象観測と天気予報を参照できる。

マップの切り替え:黒色「×」印の緑ボタンをクリックして拡大、「-」印の緑ボタンをクリックして縮小、緑色の三角印をクリックして隣りの地図に切り替え


METAR-TAF: